Meio Maru — JD4157 — position and weather

sailwx.info

Track history (hours):
 
Tides and Currents Weather Stations Pressure Air Temp Water Temp Dewpoint Dewpoint Depression Visibility Wind Speed Wind Dir Waves Ship Positions

Meio Maru

Last reported at 2018-Jul-21 07:51 UTC. Time now 2018-Jul-21 19:36 UTC.
Position N 34°34' E 134°15'.

Length 74 m; draft 4 m.

Type: Cargo ship. MMSI: 431009191.

Date/timePositionNaut miles runAvg speedWind from/ knotsBaromVisibWave heightAir tempDewpointWater temp
2018-Jul-21 07:51N 34°34' E 134°15'1212.4
2018-Jul-21 06:55N 34°37' E 134°29'512.7
2018-Jul-21 06:29N 34°38' E 134°35'612.3
2018-Jul-21 06:00N 34°40' E 134°42'7 1.0
2018-Jul-20 22:55N 34°42' E 134°50'3 6.6
2018-Jul-20 22:30N 34°40' E 134°49'0 0.0
2018-Jul-20 17:19N 34°40' E 134°49'0 0.0
2018-Jul-20 11:49N 34°40' E 134°49'0 0.0
2018-Jul-20 09:41N 34°40' E 134°49'6 9.8
2018-Jul-20 09:05N 34°36' E 134°44'212.4
2018-Jul-20 08:56N 34°34' E 134°43'512.4
2018-Jul-20 08:30N 34°29' E 134°41'612.4
2018-Jul-20 07:59N 34°23' E 134°39'911.0
2018-Jul-20 07:08N 34°13' E 134°40'812.3
2018-Jul-20 06:31N 34°08' E 134°47'014.6
2018-Jul-20 06:30N 34°08' E 134°47'612.3
2018-Jul-20 06:00N 34°03' E 134°52'612.0
2018-Jul-20 05:31N 33°59' E 134°56'612.8
2018-Jul-20 05:00N 33°54' E 135°01'23310.6
2018-Jul-19 07:02N 35°03' E 139°32'0 9.7
2018-Jul-19 07:00N 35°03' E 139°32'610.9
2018-Jul-19 06:29N 35°06' E 139°38'611.7
2018-Jul-19 06:00N 35°10' E 139°43'611.4
2018-Jul-19 05:29N 35°15' E 139°46'612.0
2018-Jul-19 05:01N 35°20' E 139°42'611.3
2018-Jul-19 04:30N 35°25' E 139°44'611.9
2018-Jul-19 04:00N 35°29' E 139°50'711.4
2018-Jul-19 03:22N 35°32' E 139°58'2 0.1
2018-Jul-18 15:18N 35°31' E 139°57'411.6
2018-Jul-18 14:58N 35°29' E 139°53'611.9
2018-Jul-18 14:30N 35°25' E 139°48'1010.3
2018-Jul-18 13:30N 35°15' E 139°47'612.0
2018-Jul-18 13:00N 35°09' E 139°46'612.3
2018-Jul-18 12:30N 35°03' E 139°45'  
2018-Jul-13 15:00N 35°05' E 140°20'812.0
2018-Jul-13 14:22N 35°00' E 140°13'2111.6
2018-Jul-13 12:31N 34°52' E 139°49'212.4
2018-Jul-13 12:23N 34°53' E 139°47'513.1
2018-Jul-13 11:59N 34°58' E 139°43'612.0
2018-Jul-13 11:30N 35°03' E 139°45'611.5
2018-Jul-13 11:00N 35°09' E 139°46'611.6
2018-Jul-13 10:29N 35°15' E 139°46'612.0
2018-Jul-13 10:01N 35°20' E 139°43'611.0
2018-Jul-13 09:30N 35°25' E 139°44'611.6
2018-Jul-13 09:00N 35°29' E 139°50'7 0.2
2018-Jul-12 01:25N 35°31' E 139°58'611.1
2018-Jul-12 00:54N 35°28' E 139°52'411.3
2018-Jul-12 00:30N 35°26' E 139°48'511.0
2018-Jul-12 00:00N 35°21' E 139°45'510.0
2018-Jul-11 23:31N 35°16' E 139°46'5 9.4
2018-Jul-11 22:59N 35°11' E 139°46'510.8
2018-Jul-11 22:30N 35°06' E 139°46'611.6
2018-Jul-11 22:00N 35°00' E 139°44'5 9.4
2018-Jul-11 21:27N 34°55' E 139°46'  
Track history (hours):
 
Tides and Currents Weather Stations Pressure Air Temp Water Temp Dewpoint Dewpoint Depression Visibility Wind Speed Wind Dir Waves Ship Positions

Meio Maru

Last reported at 2018-Jul-21 07:51 UTC. Time now 2018-Jul-21 19:36 UTC.
Position N 34°34' E 134°15'.

Length 74 m; draft 4 m.

Type: Cargo ship. MMSI: 431009191.

Date/timePositionNaut miles runAvg speedWind from/ knotsBaromVisibWave heightAir tempDewpointWater temp
2018-Jul-21 07:51N 34°34' E 134°15'1212.4
2018-Jul-21 06:55N 34°37' E 134°29'512.7
2018-Jul-21 06:29N 34°38' E 134°35'612.3
2018-Jul-21 06:00N 34°40' E 134°42'7 1.0
2018-Jul-20 22:55N 34°42' E 134°50'3 6.6
2018-Jul-20 22:30N 34°40' E 134°49'0 0.0
2018-Jul-20 17:19N 34°40' E 134°49'0 0.0
2018-Jul-20 11:49N 34°40' E 134°49'0 0.0
2018-Jul-20 09:41N 34°40' E 134°49'6 9.8
2018-Jul-20 09:05N 34°36' E 134°44'212.4
2018-Jul-20 08:56N 34°34' E 134°43'512.4
2018-Jul-20 08:30N 34°29' E 134°41'612.4
2018-Jul-20 07:59N 34°23' E 134°39'911.0
2018-Jul-20 07:08N 34°13' E 134°40'812.3
2018-Jul-20 06:31N 34°08' E 134°47'014.6
2018-Jul-20 06:30N 34°08' E 134°47'612.3
2018-Jul-20 06:00N 34°03' E 134°52'612.0
2018-Jul-20 05:31N 33°59' E 134°56'612.8
2018-Jul-20 05:00N 33°54' E 135°01'23310.6
2018-Jul-19 07:02N 35°03' E 139°32'0 9.7
2018-Jul-19 07:00N 35°03' E 139°32'610.9
2018-Jul-19 06:29N 35°06' E 139°38'611.7
2018-Jul-19 06:00N 35°10' E 139°43'611.4
2018-Jul-19 05:29N 35°15' E 139°46'612.0
2018-Jul-19 05:01N 35°20' E 139°42'611.3
2018-Jul-19 04:30N 35°25' E 139°44'611.9
2018-Jul-19 04:00N 35°29' E 139°50'711.4
2018-Jul-19 03:22N 35°32' E 139°58'2 0.1
2018-Jul-18 15:18N 35°31' E 139°57'411.6
2018-Jul-18 14:58N 35°29' E 139°53'611.9
2018-Jul-18 14:30N 35°25' E 139°48'1010.3
2018-Jul-18 13:30N 35°15' E 139°47'612.0
2018-Jul-18 13:00N 35°09' E 139°46'612.3
2018-Jul-18 12:30N 35°03' E 139°45'  
2018-Jul-13 15:00N 35°05' E 140°20'812.0
2018-Jul-13 14:22N 35°00' E 140°13'2111.6
2018-Jul-13 12:31N 34°52' E 139°49'212.4
2018-Jul-13 12:23N 34°53' E 139°47'513.1
2018-Jul-13 11:59N 34°58' E 139°43'612.0
2018-Jul-13 11:30N 35°03' E 139°45'611.5
2018-Jul-13 11:00N 35°09' E 139°46'611.6
2018-Jul-13 10:29N 35°15' E 139°46'612.0
2018-Jul-13 10:01N 35°20' E 139°43'611.0
2018-Jul-13 09:30N 35°25' E 139°44'611.6
2018-Jul-13 09:00N 35°29' E 139°50'7 0.2
2018-Jul-12 01:25N 35°31' E 139°58'611.1
2018-Jul-12 00:54N 35°28' E 139°52'411.3
2018-Jul-12 00:30N 35°26' E 139°48'511.0
2018-Jul-12 00:00N 35°21' E 139°45'510.0
2018-Jul-11 23:31N 35°16' E 139°46'5 9.4
2018-Jul-11 22:59N 35°11' E 139°46'510.8
2018-Jul-11 22:30N 35°06' E 139°46'611.6
2018-Jul-11 22:00N 35°00' E 139°44'5 9.4
2018-Jul-11 21:27N 34°55' E 139°46'  

Dump ship's entire track history